Airfield :
LOGIN :

Register | Disclaimer

   EN    FR    IT 

 










Legend :    VFR   Marginal VFR   IFR   Intensive IFR   Very Intensive IFR
Visi :
Ceiling :
>= 8 km
>= 3000ft
5 to 8 km
1000 to 3000 ft
1500m to 5 km
500 to 1000 ft
800 to 1500m
200 to 500 ft
< 800m
< 200 ft
Symbols :   Thunderstorms  Fog  Heavy snow  Heavy precipitations  Wind > 20 kt
SIGMETs :     Misc.  Thunderstorms  Icing  Turbulence  Mountain Waves  Volcanic Ashes







- Airport Elevation : 995 ft
- IATA code : KTW


EPKT - Katowice

CURRENT METAR :
  • 211930Z 32012KT 9999 FEW002 SCT023CB 14/13 Q1013 RETSRA

EXPIRED METARs :
  • 211900Z 34017KT 9999 -SHRA FEW014 BKN020CB 16/12 Q1011
  • 211830Z 32020G36KT 9999 FEW011 BKN021CB 17/13 Q1011
  • 211800Z 32015KT 9999 -SHRA SCT023CB BKN049 20/16 Q1010
  • 211730Z 32020G33KT 9999 BKN065CB 23/14 Q1008
  • 211700Z 24016KT 9999 FEW050CB 30/13 Q1007

TAF TAF EPKT
Valid from the 21 at 18:00 until the 22 at 18:00 UTC


211730Z 2118/2218 23014KT 9999 SCT040
TEMPO 2118/2121 TSRA BKN033CB
PROB40
TEMPO 2118/2121 VRB22G50KT 2000 TSRAGR BKN020CB
BECMG 2118/2121 30014KT
TEMPO 2121/2124 32015G25KT 4000 SHRA BKN020CB
TEMPO 2215/2218 SHRA BKN020CB
No reported NOTAMs for that airfield.
1 SIGMET reported for the Warszawa FIR (EPWW) :
 
Squall lined thunderstorms
EPWW SIGMET 3 VALID 211920/212120 EPWA
EPWW WARSAW FIR SQL TS OBS WI N5420 E02310 - N5200 E02330 - N4920 E02110 - N4920 E01850 - N5200 E02100 - N5410 E02310 TOP FL350 MOV E WKN=



MET'MAP, your aeronautical weather chart ! - Copyright ORBIFLY December 2007 - Disclaimer

ORBIFLY MET'MAP TEAM :

Programming & Development : Alexandra Zaïnal
Concept & Development : Baudouin d'Aumeries
Co-Development & Prog : Marc-Olivier Méhu
Technical & hardware support : Manuel Goepfert

Contact : metmap@orbifly.com




SOURCES & CREDITS :

   NOAA